createdAt,value
2019-03-31T00:01:08.300Z,60.10
2019-03-31T00:03:36.711Z,61.80
2019-03-31T00:06:08.618Z,56.47
2019-03-31T00:08:40.518Z,57.67
2019-03-31T00:11:12.766Z,56.67
2019-03-31T00:13:44.766Z,60.00
2019-03-31T00:16:16.903Z,57.90
2019-03-31T00:18:49.192Z,57.70
2019-03-31T00:21:21.152Z,54.73
2019-03-31T00:23:53.108Z,54.23
2019-03-31T00:26:24.898Z,52.27
2019-03-31T00:28:56.792Z,55.73
2019-03-31T00:31:28.778Z,50.23
2019-03-31T00:34:00.606Z,51.73
2019-03-31T00:36:32.411Z,54.53
2019-03-31T00:39:05.834Z,51.87
2019-03-31T00:41:37.777Z,52.93
2019-03-31T00:44:09.796Z,56.30
2019-03-31T00:46:41.512Z,54.50
2019-03-31T00:49:13.269Z,53.83
2019-03-31T00:51:45.197Z,55.27
2019-03-31T00:54:17.079Z,50.80
2019-03-31T00:56:49.899Z,52.67
2019-03-31T00:59:21.769Z,54.17
2019-03-31T01:02:02.660Z,56.93
2019-03-31T01:04:34.797Z,53.43
2019-03-31T01:07:08.276Z,50.77
2019-03-31T01:09:40.075Z,52.17
2019-03-31T01:12:12.559Z,57.87
2019-03-31T01:14:45.313Z,56.40
2019-03-31T01:17:18.992Z,56.13
2019-03-31T01:19:52.082Z,59.63
2019-03-31T01:22:23.901Z,65.13
2019-03-31T01:24:55.679Z,57.03
2019-03-31T01:27:27.696Z,55.27
2019-03-31T01:29:59.516Z,52.60
2019-03-31T01:32:31.711Z,53.93
2019-03-31T01:35:03.690Z,58.57
2019-03-31T01:37:35.697Z,59.23
2019-03-31T01:40:07.528Z,58.53
2019-03-31T01:42:39.310Z,56.63
2019-03-31T01:45:11.429Z,62.30
2019-03-31T01:47:43.388Z,71.97
2019-03-31T01:50:15.888Z,71.60
2019-03-31T01:52:47.682Z,64.83
2019-03-31T01:55:19.602Z,63.37
2019-03-31T01:57:51.382Z,67.97
2019-03-31T02:00:38.823Z,64.63
2019-03-31T02:03:10.760Z,63.43
2019-03-31T02:05:42.489Z,56.83
2019-03-31T02:08:14.373Z,66.13
2019-03-31T02:10:46.073Z,65.87
2019-03-31T02:13:17.779Z,69.43
2019-03-31T02:15:49.509Z,57.07
2019-03-31T02:18:21.270Z,61.97
2019-03-31T02:20:52.938Z,57.67
2019-03-31T02:23:24.596Z,64.17
2019-03-31T02:25:56.288Z,68.87
2019-03-31T02:28:27.945Z,64.30
2019-03-31T02:30:59.724Z,59.13
2019-03-31T02:33:31.594Z,59.13
2019-03-31T02:36:03.412Z,65.07
2019-03-31T02:38:35.097Z,72.90
2019-03-31T02:41:06.726Z,62.87
2019-03-31T02:43:38.333Z,67.13
2019-03-31T02:46:10.064Z,65.20
2019-03-31T02:48:41.728Z,60.40
2019-03-31T02:51:13.884Z,57.03
2019-03-31T02:53:45.611Z,56.70
2019-03-31T02:56:18.315Z,55.03
2019-03-31T02:58:50.915Z,61.57
2019-03-31T03:01:24.973Z,62.80
2019-03-31T03:03:58.541Z,62.83
2019-03-31T03:06:32.042Z,62.17
2019-03-31T03:09:06.405Z,60.67
2019-03-31T03:11:38.873Z,58.30
2019-03-31T03:14:11.324Z,60.13
2019-03-31T03:16:42.889Z,61.97
2019-03-31T03:19:14.576Z,60.90
2019-03-31T03:21:46.318Z,56.43
2019-03-31T03:24:17.939Z,61.23
2019-03-31T03:26:49.634Z,62.00
2019-03-31T03:29:21.335Z,68.77
2019-03-31T03:31:52.990Z,59.47
2019-03-31T03:34:24.596Z,58.83
2019-03-31T03:36:56.331Z,60.53
2019-03-31T03:39:28.011Z,56.40
2019-03-31T03:41:59.638Z,65.83
2019-03-31T03:44:31.328Z,61.63
2019-03-31T03:47:02.999Z,65.97
2019-03-31T03:49:34.711Z,67.37
2019-03-31T03:52:06.554Z,69.27
2019-03-31T03:54:38.307Z,63.17
2019-03-31T03:57:09.938Z,65.47
2019-03-31T03:59:41.655Z,58.57
2019-03-31T04:02:13.385Z,59.10
2019-03-31T04:04:45.105Z,75.67
2019-03-31T04:07:16.720Z,75.43
2019-03-31T04:09:48.355Z,77.67
2019-03-31T04:12:20.058Z,69.97
2019-03-31T04:14:51.701Z,71.90
2019-03-31T04:17:23.354Z,64.60
2019-03-31T04:19:56.047Z,59.97
2019-03-31T04:22:27.705Z,62.47
2019-03-31T04:24:59.428Z,66.77
2019-03-31T04:27:30.961Z,70.47
2019-03-31T04:30:02.668Z,72.47
2019-03-31T04:32:38.541Z,65.90
2019-03-31T04:35:07.920Z,64.27
2019-03-31T04:37:39.550Z,60.13
2019-03-31T04:40:11.197Z,62.50
2019-03-31T04:42:43.933Z,63.77
2019-03-31T04:45:15.562Z,66.43
2019-03-31T04:47:47.189Z,71.73
2019-03-31T04:50:18.888Z,67.77
2019-03-31T04:52:50.610Z,67.60
2019-03-31T04:55:23.196Z,64.03
2019-03-31T04:57:55.947Z,67.23
2019-03-31T05:00:27.551Z,67.90
2019-03-31T05:02:59.162Z,81.67
2019-03-31T05:05:30.886Z,90.10
2019-03-31T05:08:02.555Z,78.30
2019-03-31T05:10:34.178Z,71.77
2019-03-31T05:13:05.755Z,69.37
2019-03-31T05:15:38.481Z,70.60
2019-03-31T05:18:10.188Z,73.80
2019-03-31T05:20:41.843Z,68.30
2019-03-31T05:23:13.472Z,73.63
2019-03-31T05:25:45.166Z,71.77
2019-03-31T05:28:16.902Z,73.20
2019-03-31T05:30:48.501Z,73.73
2019-03-31T05:33:20.158Z,84.90
2019-03-31T05:35:51.891Z,78.20
2019-03-31T05:38:23.599Z,76.13
2019-03-31T05:40:55.402Z,77.87
2019-03-31T05:43:27.062Z,84.93
2019-03-31T05:45:58.767Z,82.13
2019-03-31T05:48:30.510Z,84.70
2019-03-31T05:51:02.287Z,88.90
2019-03-31T05:53:34.032Z,93.20
2019-03-31T05:56:05.753Z,96.43
2019-03-31T05:58:37.473Z,90.83
2019-03-31T06:01:09.105Z,90.47
2019-03-31T06:03:40.778Z,89.90
2019-03-31T06:06:12.537Z,84.70
2019-03-31T06:08:44.221Z,85.10
2019-03-31T06:11:17.055Z,87.53
2019-03-31T06:13:50.562Z,80.67
2019-03-31T06:16:22.325Z,76.70
2019-03-31T06:18:54.040Z,74.03
2019-03-31T06:21:29.000Z,73.07
2019-03-31T06:23:59.088Z,71.50
2019-03-31T06:26:30.782Z,69.97
2019-03-31T06:29:02.539Z,67.40
2019-03-31T06:31:35.717Z,72.57
2019-03-31T06:34:07.371Z,70.40
2019-03-31T06:36:39.137Z,62.20
2019-03-31T06:39:10.797Z,59.90
2019-03-31T06:41:43.675Z,54.90
2019-03-31T06:44:15.503Z,49.53
2019-03-31T06:46:47.206Z,46.83
2019-03-31T06:49:18.976Z,43.27
2019-03-31T06:51:50.815Z,48.00
2019-03-31T06:54:22.640Z,47.20
2019-03-31T06:56:54.440Z,47.40
2019-03-31T06:59:26.350Z,47.20
2019-03-31T07:01:58.155Z,48.23
2019-03-31T07:04:31.100Z,47.20
2019-03-31T07:07:03.183Z,46.17
2019-03-31T07:09:35.010Z,44.50
2019-03-31T07:12:06.788Z,44.40
2019-03-31T07:14:38.577Z,45.10
2019-03-31T07:17:10.365Z,40.97
2019-03-31T07:19:42.142Z,36.07
2019-03-31T07:22:13.921Z,32.07
2019-03-31T07:24:45.724Z,33.00
2019-03-31T07:27:17.643Z,31.93
2019-03-31T07:29:49.451Z,32.23
2019-03-31T07:32:21.240Z,30.37
2019-03-31T07:34:52.972Z,28.47
2019-03-31T07:37:24.737Z,27.10
2019-03-31T07:39:56.633Z,26.97
2019-03-31T07:42:28.508Z,28.37
2019-03-31T07:45:00.389Z,28.57
2019-03-31T07:47:32.292Z,28.50
2019-03-31T07:50:04.229Z,27.67
2019-03-31T07:52:36.111Z,29.50
2019-03-31T07:55:09.784Z,29.80
2019-03-31T07:57:41.908Z,30.23
2019-03-31T08:00:17.419Z,32.27
2019-03-31T08:02:49.340Z,33.13
2019-03-31T08:05:32.843Z,35.80
2019-03-31T08:07:56.279Z,33.77
2019-03-31T08:10:28.016Z,32.50
2019-03-31T08:13:00.175Z,30.90
2019-03-31T08:15:31.859Z,31.90
2019-03-31T08:18:03.817Z,31.27
2019-03-31T08:20:35.537Z,31.60
2019-03-31T08:23:07.512Z,31.67
2019-03-31T08:25:39.264Z,32.07
2019-03-31T08:28:12.223Z,32.97
2019-03-31T08:30:44.017Z,30.10
2019-03-31T08:33:15.785Z,30.20
2019-03-31T08:35:48.004Z,31.00
2019-03-31T08:38:20.232Z,31.03
2019-03-31T08:40:52.004Z,29.70
2019-03-31T08:43:23.903Z,28.47
2019-03-31T08:45:56.068Z,29.50
2019-03-31T08:48:28.284Z,28.43
2019-03-31T08:51:01.451Z,29.87
2019-03-31T08:53:33.833Z,28.77
2019-03-31T08:56:08.588Z,29.13
2019-03-31T08:58:39.121Z,29.10
2019-03-31T09:01:16.119Z,27.47
2019-03-31T09:03:47.925Z,28.83
2019-03-31T09:06:19.620Z,26.47
2019-03-31T09:08:51.449Z,28.53
2019-03-31T09:11:23.318Z,27.90
2019-03-31T09:13:55.196Z,28.20
2019-03-31T09:16:29.418Z,28.10
2019-03-31T09:19:01.247Z,28.57
2019-03-31T09:21:33.097Z,27.90
2019-03-31T09:24:05.078Z,27.20
2019-03-31T09:26:37.028Z,27.93
2019-03-31T09:29:08.866Z,27.70
2019-03-31T09:31:40.673Z,27.67
2019-03-31T09:34:12.552Z,27.53
2019-03-31T09:36:44.340Z,27.20
2019-03-31T09:39:16.624Z,26.20
2019-03-31T09:41:48.321Z,26.90
2019-03-31T09:44:21.342Z,26.07
2019-03-31T09:46:54.896Z,25.63
2019-03-31T09:49:39.319Z,24.57
2019-03-31T09:52:10.989Z,25.80
2019-03-31T09:54:47.031Z,23.35
2019-03-31T09:57:34.335Z,23.07
2019-03-31T10:00:07.239Z,22.80
2019-03-31T10:02:40.272Z,21.93
2019-03-31T10:05:12.667Z,22.03
2019-03-31T10:07:46.013Z,23.45
2019-03-31T10:10:31.132Z,24.15
2019-03-31T10:13:03.307Z,24.00
2019-03-31T10:15:35.078Z,22.00
2019-03-31T10:18:07.021Z,24.25
2019-03-31T10:20:38.706Z,24.37
2019-03-31T10:23:10.679Z,24.87
2019-03-31T10:25:42.327Z,25.60
2019-03-31T10:28:14.189Z,24.83
2019-03-31T10:30:45.940Z,23.87
2019-03-31T10:33:17.793Z,23.47
2019-03-31T10:35:49.479Z,23.07
2019-03-31T10:38:21.311Z,22.67
2019-03-31T10:40:53.138Z,26.97
2019-03-31T10:43:25.896Z,27.07
2019-03-31T10:45:57.643Z,27.87
2019-03-31T10:48:29.558Z,25.02
2019-03-31T10:51:01.339Z,24.40
2019-03-31T10:53:33.032Z,24.57
2019-03-31T10:56:04.822Z,24.85
2019-03-31T10:58:36.833Z,27.02
2019-03-31T11:01:08.678Z,27.03
2019-03-31T11:03:40.510Z,26.12
2019-03-31T11:06:12.296Z,25.97
2019-03-31T11:08:44.106Z,25.10
2019-03-31T11:11:15.903Z,23.50
2019-03-31T11:13:47.795Z,26.10
2019-03-31T11:16:22.129Z,25.72
2019-03-31T11:18:54.012Z,23.40
2019-03-31T11:21:47.734Z,25.43
2019-03-31T11:24:19.648Z,25.00
2019-03-31T11:26:51.455Z,23.38
2019-03-31T11:29:23.328Z,25.25
2019-03-31T11:31:55.013Z,24.35
2019-03-31T11:34:26.740Z,24.23
2019-03-31T11:37:12.463Z,22.43
2019-03-31T11:39:31.810Z,22.73
2019-03-31T11:42:03.515Z,23.62
2019-03-31T11:44:35.427Z,21.82
2019-03-31T11:47:07.313Z,23.07
2019-03-31T11:49:40.147Z,21.95
2019-03-31T11:52:12.174Z,22.75
2019-03-31T11:54:45.944Z,22.05
2019-03-31T11:57:17.821Z,20.02
2019-03-31T11:59:49.945Z,18.95
2019-03-31T12:02:27.505Z,18.60
2019-03-31T12:04:56.078Z,18.52
2019-03-31T12:07:28.708Z,16.60
2019-03-31T12:10:00.980Z,15.10
2019-03-31T12:12:32.951Z,13.43
2019-03-31T12:15:05.257Z,14.85
2019-03-31T12:17:37.137Z,15.20
2019-03-31T12:20:09.751Z,14.50
2019-03-31T12:22:42.201Z,15.72
2019-03-31T12:25:14.659Z,15.98
2019-03-31T12:27:46.695Z,14.90
2019-03-31T12:30:27.434Z,16.25
2019-03-31T12:32:59.837Z,16.48
2019-03-31T12:35:31.917Z,17.00
2019-03-31T12:38:03.888Z,17.52
2019-03-31T12:40:37.473Z,17.62
2019-03-31T12:43:09.420Z,16.87
2019-03-31T12:45:43.172Z,16.15
2019-03-31T12:48:14.876Z,16.15
2019-03-31T12:50:46.935Z,16.45
2019-03-31T12:53:18.844Z,15.50
2019-03-31T12:55:59.873Z,16.40
2019-03-31T12:58:24.182Z,14.33
2019-03-31T13:00:56.047Z,17.90
2019-03-31T13:03:30.126Z,22.83
2019-03-31T13:06:01.980Z,17.63
2019-03-31T13:08:33.784Z,16.43
2019-03-31T13:11:09.835Z,20.17
2019-03-31T13:13:42.149Z,22.93
2019-03-31T13:16:14.566Z,21.80
2019-03-31T13:18:46.679Z,19.87
2019-03-31T13:21:18.565Z,18.07
2019-03-31T13:23:50.359Z,18.17
2019-03-31T13:26:22.256Z,17.92
2019-03-31T13:28:54.518Z,17.60
2019-03-31T13:31:26.666Z,19.20
2019-03-31T13:33:58.502Z,19.83
2019-03-31T13:36:30.356Z,18.03
2019-03-31T13:39:02.337Z,18.13
2019-03-31T13:41:34.624Z,18.80
2019-03-31T13:44:06.562Z,18.67
2019-03-31T13:46:38.502Z,18.60
2019-03-31T13:49:10.227Z,19.37
2019-03-31T13:51:42.025Z,18.90
2019-03-31T13:54:13.963Z,19.13
2019-03-31T13:56:48.718Z,20.27
2019-03-31T13:59:19.134Z,19.23
2019-03-31T14:01:51.204Z,19.43
2019-03-31T14:04:23.037Z,30.00
2019-03-31T14:06:54.978Z,30.87
2019-03-31T14:09:26.820Z,30.77
2019-03-31T14:11:58.799Z,30.67
2019-03-31T14:14:30.674Z,32.47
2019-03-31T14:17:02.710Z,56.27
2019-03-31T14:19:34.814Z,60.20
2019-03-31T14:22:06.885Z,30.83
2019-03-31T14:24:38.608Z,29.43
2019-03-31T14:27:10.389Z,68.40
2019-03-31T14:29:42.573Z,31.97
2019-03-31T14:32:15.823Z,20.70
2019-03-31T14:34:47.858Z,21.03
2019-03-31T14:37:19.926Z,36.00
2019-03-31T14:39:51.737Z,18.20
2019-03-31T14:42:23.580Z,23.53
2019-03-31T14:44:55.415Z,16.00
2019-03-31T14:47:27.633Z,15.10
2019-03-31T14:49:59.513Z,17.80
2019-03-31T14:52:31.395Z,17.13
2019-03-31T14:55:03.386Z,14.63
2019-03-31T14:57:35.369Z,14.53
2019-03-31T15:00:14.771Z,14.27
2019-03-31T15:02:41.327Z,14.43
2019-03-31T15:05:13.200Z,14.03
2019-03-31T15:07:45.192Z,14.47
2019-03-31T15:10:17.204Z,13.77
2019-03-31T15:12:49.130Z,12.93
2019-03-31T15:15:29.760Z,12.27
2019-03-31T15:18:01.796Z,12.93
2019-03-31T15:20:35.590Z,12.90
2019-03-31T15:23:10.849Z,12.07
2019-03-31T15:25:43.331Z,11.80
2019-03-31T15:28:15.389Z,11.33
2019-03-31T15:30:48.887Z,13.03
2019-03-31T15:33:21.073Z,11.63
2019-03-31T15:35:53.058Z,12.23
2019-03-31T15:38:25.105Z,12.37
2019-03-31T15:40:57.249Z,11.23
2019-03-31T15:43:30.626Z,11.83
2019-03-31T15:46:03.426Z,11.10
2019-03-31T15:48:35.347Z,29.40
2019-03-31T15:51:07.241Z,39.70
2019-03-31T15:53:39.288Z,14.17
2019-03-31T15:56:12.283Z,12.40
2019-03-31T15:58:44.233Z,12.57
2019-03-31T16:01:16.516Z,13.67
2019-03-31T16:03:48.479Z,12.53
2019-03-31T16:06:20.348Z,12.70
2019-03-31T16:08:51.768Z,14.47
2019-03-31T16:11:24.138Z,12.33
2019-03-31T16:13:56.567Z,13.13
2019-03-31T16:16:30.681Z,12.73
2019-03-31T16:19:01.441Z,14.80
2019-03-31T16:21:33.145Z,13.90
2019-03-31T16:24:04.756Z,13.37
2019-03-31T16:26:36.243Z,12.93
2019-03-31T16:29:08.599Z,12.80
2019-03-31T16:31:41.951Z,14.47
2019-03-31T16:34:15.085Z,13.63
2019-03-31T16:36:47.660Z,11.90
2019-03-31T16:39:19.543Z,9.77
2019-03-31T16:41:51.249Z,10.50
2019-03-31T16:44:22.712Z,10.37
2019-03-31T16:46:54.268Z,10.20
2019-03-31T16:49:25.862Z,10.33
2019-03-31T16:51:57.336Z,10.10
2019-03-31T16:54:28.704Z,10.60
2019-03-31T16:57:00.186Z,10.97
2019-03-31T16:59:31.919Z,12.43
2019-03-31T17:02:03.498Z,11.33
2019-03-31T17:04:34.866Z,10.73
2019-03-31T17:07:07.075Z,10.50
2019-03-31T17:09:50.971Z,10.47
2019-03-31T17:12:11.547Z,12.33
2019-03-31T17:14:42.782Z,12.80
2019-03-31T17:17:14.562Z,12.20
2019-03-31T17:19:46.297Z,15.40
2019-03-31T17:22:19.049Z,12.43
2019-03-31T17:24:50.763Z,12.63
2019-03-31T17:27:22.281Z,12.90
2019-03-31T17:29:53.515Z,12.40
2019-03-31T17:32:24.854Z,11.23
2019-03-31T17:34:56.366Z,11.47
2019-03-31T17:37:27.618Z,11.57
2019-03-31T17:40:05.979Z,11.20
2019-03-31T17:42:31.782Z,12.23
2019-03-31T17:45:03.285Z,15.23
2019-03-31T17:47:34.997Z,13.13
2019-03-31T17:50:07.139Z,12.53
2019-03-31T17:52:38.581Z,13.10
2019-03-31T17:55:10.426Z,13.23
2019-03-31T17:57:42.516Z,12.63
2019-03-31T18:00:14.704Z,15.10
2019-03-31T18:02:46.308Z,19.43
2019-03-31T18:05:17.557Z,20.40
2019-03-31T18:07:48.900Z,21.20
2019-03-31T18:10:21.546Z,18.57
2019-03-31T18:12:53.047Z,18.97
2019-03-31T18:15:24.553Z,17.17
2019-03-31T18:17:56.197Z,13.77
2019-03-31T18:20:27.562Z,13.80
2019-03-31T18:22:59.295Z,18.13
2019-03-31T18:25:30.676Z,14.70
2019-03-31T18:28:02.129Z,13.53
2019-03-31T18:30:34.437Z,27.77
2019-03-31T18:33:05.868Z,13.90
2019-03-31T18:35:37.521Z,16.00
2019-03-31T18:38:08.916Z,13.93
2019-03-31T18:40:40.336Z,17.03
2019-03-31T18:43:11.969Z,15.90
2019-03-31T18:45:43.571Z,17.03
2019-03-31T18:48:15.111Z,15.67
2019-03-31T18:50:46.761Z,14.40
2019-03-31T18:53:31.173Z,13.80
2019-03-31T18:56:24.186Z,13.73
2019-03-31T18:59:23.756Z,16.63
2019-03-31T19:02:14.470Z,17.77
2019-03-31T19:05:14.091Z,18.30
2019-03-31T19:08:03.298Z,16.00
2019-03-31T19:10:49.667Z,15.40
2019-03-31T19:13:54.848Z,16.57
2019-03-31T19:16:34.186Z,18.40
2019-03-31T19:19:19.379Z,19.13
2019-03-31T19:22:10.178Z,18.43
2019-03-31T19:25:03.821Z,16.60
2019-03-31T19:27:43.209Z,15.70
2019-03-31T19:30:27.967Z,17.43
2019-03-31T19:33:18.623Z,15.27
2019-03-31T19:36:11.911Z,19.37
2019-03-31T19:39:08.524Z,16.87
2019-03-31T19:42:17.929Z,18.27
2019-03-31T19:44:56.866Z,20.00
2019-03-31T19:48:10.968Z,19.80
2019-03-31T19:51:15.550Z,20.00
2019-03-31T19:54:31.627Z,18.63
2019-03-31T19:57:35.800Z,18.23
2019-03-31T20:00:30.996Z,20.77
2019-03-31T20:03:37.676Z,23.60
2019-03-31T20:06:27.893Z,24.57
2019-03-31T20:09:21.867Z,23.30
2019-03-31T20:12:19.029Z,25.73
2019-03-31T20:15:15.160Z,25.13
2019-03-31T20:18:25.784Z,23.60
2019-03-31T20:21:30.978Z,24.43
2019-03-31T20:24:06.982Z,24.63
2019-03-31T20:26:59.956Z,25.73
2019-03-31T20:29:46.798Z,23.57
2019-03-31T20:32:34.827Z,19.83
2019-03-31T20:35:30.037Z,20.40
2019-03-31T20:38:13.306Z,19.97
2019-03-31T20:40:55.386Z,17.73
2019-03-31T20:43:39.244Z,18.67
2019-03-31T20:46:10.977Z,17.13
2019-03-31T20:48:42.368Z,15.67
2019-03-31T20:51:13.723Z,15.47
2019-03-31T20:53:45.067Z,15.80
2019-03-31T20:56:16.634Z,13.80
2019-03-31T20:58:47.885Z,13.13
2019-03-31T21:01:19.235Z,12.57
2019-03-31T21:03:50.468Z,12.37
2019-03-31T21:06:21.735Z,11.63
2019-03-31T21:08:53.114Z,10.87
2019-03-31T21:11:24.395Z,11.17
2019-03-31T21:13:57.253Z,10.73
2019-03-31T21:16:28.708Z,10.27
2019-03-31T21:19:00.141Z,9.97
2019-03-31T21:21:31.441Z,10.30
2019-03-31T21:24:02.781Z,10.70
2019-03-31T21:26:34.097Z,9.90
2019-03-31T21:29:05.484Z,9.70
2019-03-31T21:31:36.741Z,9.33
2019-03-31T21:34:07.996Z,9.60
2019-03-31T21:36:39.284Z,10.13
2019-03-31T21:39:10.506Z,9.17
2019-03-31T21:41:41.666Z,9.27
2019-03-31T21:44:13.115Z,8.93
2019-03-31T21:46:44.587Z,10.10
2019-03-31T21:49:15.837Z,8.50
2019-03-31T21:51:47.148Z,8.97
2019-03-31T21:54:18.504Z,8.67
2019-03-31T21:56:49.712Z,8.67
2019-03-31T21:59:20.921Z,9.27
2019-03-31T22:01:52.247Z,8.67
2019-03-31T22:04:23.591Z,8.63
2019-03-31T22:06:54.875Z,7.57
2019-03-31T22:09:28.801Z,7.80
2019-03-31T22:12:08.510Z,7.67
2019-03-31T22:14:49.992Z,6.83
2019-03-31T22:17:21.342Z,6.30
2019-03-31T22:19:52.672Z,5.10
2019-03-31T22:22:23.999Z,5.00
2019-03-31T22:24:55.269Z,4.83
2019-03-31T22:27:26.703Z,4.93
2019-03-31T22:29:58.067Z,3.93
2019-03-31T22:32:29.291Z,4.20
2019-03-31T22:35:00.620Z,3.87
2019-03-31T22:37:31.978Z,3.67
2019-03-31T22:40:03.365Z,4.00
2019-03-31T22:42:34.584Z,3.60
2019-03-31T22:45:06.238Z,4.10
2019-03-31T22:47:37.809Z,3.90
2019-03-31T22:50:09.021Z,3.90
2019-03-31T22:52:40.269Z,3.57
2019-03-31T22:55:11.576Z,3.57
2019-03-31T22:57:42.856Z,3.10
2019-03-31T23:00:20.272Z,2.97
2019-03-31T23:02:53.194Z,2.73
2019-03-31T23:05:24.464Z,3.07
2019-03-31T23:07:55.775Z,3.50
2019-03-31T23:10:27.097Z,3.30
2019-03-31T23:12:58.317Z,3.47
2019-03-31T23:15:29.618Z,3.10
2019-03-31T23:18:00.718Z,3.10
2019-03-31T23:20:31.903Z,2.63
2019-03-31T23:23:03.127Z,3.20
2019-03-31T23:25:34.574Z,2.47
2019-03-31T23:28:05.809Z,2.97
2019-03-31T23:30:37.106Z,3.93
2019-03-31T23:33:08.333Z,3.17
2019-03-31T23:35:39.605Z,3.50
2019-03-31T23:38:10.939Z,3.43
2019-03-31T23:40:42.102Z,2.90
2019-03-31T23:43:13.272Z,3.00
2019-03-31T23:45:44.437Z,3.27
2019-03-31T23:48:15.711Z,3.27
2019-03-31T23:50:46.878Z,3.73
2019-03-31T23:53:18.096Z,3.07
2019-03-31T23:55:49.334Z,3.20
2019-03-31T23:58:20.606Z,2.73
